Time;durP1;ratioP1;P1;durP2;ratioP2;P2;SDS_P1;SDS_P2;PMS_P1;PMS_P2;Temp;Humidity;BMP_temperature;BMP_pressure;BME280_temperature;BME280_humidity;BME280_pressure;Samples;Min_cycle;Max_cycle;Signal;HPM_P1;HPM_P2
2022/10/21 00:02:06;;;;;;;19.03;13.67;;;;;;;;;;5032399;28;20178;-76
2022/10/21 00:04:31;;;;;;;13.77;11.17;;;;;;;;;;5027479;28;20202;-75
2022/10/21 00:06:56;;;;;;;15.60;11.70;;;;;;;;;;5033834;28;20171;-76
2022/10/21 00:09:21;;;;;;;18.13;11.90;;;;;;;;;;5038698;28;20206;-76
2022/10/21 00:11:46;;;;;;;16.23;9.90;;;;;;;;;;5032169;28;20208;-76
2022/10/21 00:14:12;;;;;;;18.93;9.80;;;;;;;;;;5031457;28;20184;-76
2022/10/21 00:16:37;;;;;;;15.03;10.10;;;;;;;;;;5032522;28;20219;-76
2022/10/21 00:19:02;;;;;;;16.17;10.03;;;;;;;;;;5026315;28;20294;-76
2022/10/21 00:21:27;;;;;;;14.47;10.03;;;;;;;;;;5033283;28;20276;-76
2022/10/21 00:23:53;;;;;;;14.53;10.13;;;;;;;;;;5045682;28;20268;-76
2022/10/21 00:26:19;;;;;;;14.50;9.37;;;;;;;;;;5050098;28;20245;-76
2022/10/21 00:28:45;;;;;;;14.03;9.80;;;;;;;;;;5044493;28;20304;-76
2022/10/21 00:31:11;;;;;;;12.50;8.90;;;;;;;;;;5035568;28;20261;-76
2022/10/21 00:33:36;;;;;;;13.37;7.97;;;;;;;;;;5044009;28;21036;-77
2022/10/21 00:36:02;;;;;;;12.33;8.53;;;;;;;;;;5046188;28;20175;-76
2022/10/21 00:38:28;;;;;;;10.20;8.47;;;;;;;;;;5033248;28;20201;-76
2022/10/21 00:40:54;;;;;;;9.73;8.07;;;;;;;;;;5030547;28;20225;-76
2022/10/21 00:43:19;;;;;;;21.53;9.53;;;;;;;;;;5032192;28;20182;-76
2022/10/21 00:45:46;;;;;;;11.83;8.20;;;;;;;;;;5032665;28;20178;-76
2022/10/21 00:48:11;;;;;;;15.70;9.13;;;;;;;;;;5029974;28;20197;-76
2022/10/21 00:50:38;;;;;;;13.70;8.47;;;;;;;;;;5030701;28;20582;-76
2022/10/21 00:53:05;;;;;;;13.47;8.87;;;;;;;;;;5031736;28;20637;-75
2022/10/21 00:55:32;;;;;;;15.37;7.80;;;;;;;;;;5031149;28;20205;-76
2022/10/21 00:57:58;;;;;;;11.40;8.40;;;;;;;;;;5040753;28;20220;-76
2022/10/21 01:00:24;;;;;;;10.43;8.93;;;;;;;;;;5031146;28;20273;-76
2022/10/21 01:02:49;;;;;;;15.37;8.27;;;;;;;;;;5033035;28;20205;-76
2022/10/21 01:05:15;;;;;;;16.83;9.40;;;;;;;;;;5032189;28;20272;-76
2022/10/21 01:07:41;;;;;;;19.07;8.53;;;;;;;;;;5047298;28;20192;-76
2022/10/21 01:10:06;;;;;;;12.70;8.37;;;;;;;;;;5032953;28;20185;-76
2022/10/21 01:12:34;;;;;;;15.07;8.27;;;;;;;;;;5036340;28;20204;-76
2022/10/21 01:15:20;;;;;;;15.63;8.17;;;;;;;;;;5032682;28;20205;-76
2022/10/21 01:17:48;;;;;;;14.93;8.27;;;;;;;;;;5040481;28;20210;-76
2022/10/21 01:20:13;;;;;;;14.77;7.70;;;;;;;;;;5048309;28;20224;-76
2022/10/21 01:22:51;;;;;;;13.17;8.20;;;;;;;;;;5049452;28;20830;-76
2022/10/21 01:25:25;;;;;;;12.57;7.27;;;;;;;;;;5048253;28;20169;-77
2022/10/21 01:28:09;;;;;;;10.07;6.77;;;;;;;;;;5047198;28;20292;-77
2022/10/21 01:30:38;;;;;;;17.37;8.10;;;;;;;;;;5032960;28;20299;-76
2022/10/21 01:33:04;;;;;;;7.27;6.00;;;;;;;;;;5050940;28;20190;-76
2022/10/21 01:35:38;;;;;;;9.10;5.63;;;;;;;;;;5031991;28;20174;-76
2022/10/21 01:38:06;;;;;;;8.40;5.53;;;;;;;;;;5033017;28;20219;-76
2022/10/21 01:40:34;;;;;;;8.43;5.13;;;;;;;;;;5034825;28;20173;-76
2022/10/21 01:43:07;;;;;;;8.70;4.90;;;;;;;;;;5041284;28;20181;-76
2022/10/21 01:45:39;;;;;;;7.40;4.00;;;;;;;;;;5035086;28;20224;-76
2022/10/21 01:48:09;;;;;;;8.50;3.83;;;;;;;;;;5034372;28;20177;-76
2022/10/21 01:50:41;;;;;;;7.00;3.70;;;;;;;;;;5026487;28;20211;-76
2022/10/21 01:53:08;;;;;;;4.60;3.50;;;;;;;;;;5031060;28;20194;-76
2022/10/21 01:55:34;;;;;;;9.10;3.70;;;;;;;;;;5054034;28;20186;-76
2022/10/21 01:58:05;;;;;;;4.20;3.03;;;;;;;;;;5051924;28;20207;-77
2022/10/21 02:00:31;;;;;;;5.07;3.47;;;;;;;;;;5033575;28;20177;-76
2022/10/21 02:02:57;;;;;;;6.83;3.50;;;;;;;;;;5036129;28;20188;-77
2022/10/21 02:05:24;;;;;;;4.23;2.97;;;;;;;;;;5033746;28;20268;-76
2022/10/21 02:07:49;;;;;;;4.70;3.00;;;;;;;;;;5037575;28;20182;-76
2022/10/21 02:10:15;;;;;;;3.93;3.47;;;;;;;;;;5034406;28;20216;-76
2022/10/21 02:12:41;;;;;;;7.50;4.20;;;;;;;;;;5035009;28;20216;-76
2022/10/21 02:15:07;;;;;;;10.67;4.70;;;;;;;;;;5051202;28;20178;-76
2022/10/21 02:17:33;;;;;;;7.67;3.97;;;;;;;;;;5032835;28;20194;-77
2022/10/21 02:20:01;;;;;;;7.07;4.13;;;;;;;;;;5057080;28;20178;-76
2022/10/21 02:22:26;;;;;;;7.50;3.70;;;;;;;;;;5046113;28;20213;-76
2022/10/21 02:24:57;;;;;;;5.70;4.30;;;;;;;;;;5051978;28;20256;-76
2022/10/21 02:27:22;;;;;;;6.60;3.47;;;;;;;;;;5027808;28;20173;-76
2022/10/21 02:29:48;;;;;;;7.47;4.60;;;;;;;;;;5052288;28;20234;-76
2022/10/21 02:32:13;;;;;;;8.50;4.13;;;;;;;;;;5032469;28;20175;-76
2022/10/21 02:34:47;;;;;;;6.80;4.17;;;;;;;;;;5029599;28;20189;-76
2022/10/21 02:37:19;;;;;;;9.90;4.67;;;;;;;;;;5036571;28;20205;-76
2022/10/21 02:39:50;;;;;;;7.60;4.40;;;;;;;;;;5029451;28;20215;-77
2022/10/21 02:42:19;;;;;;;8.23;4.93;;;;;;;;;;5029601;28;20184;-76
2022/10/21 02:44:44;;;;;;;7.20;4.70;;;;;;;;;;5034339;28;20262;-76
2022/10/21 02:47:09;;;;;;;6.10;4.97;;;;;;;;;;5052400;28;20329;-76
2022/10/21 02:49:35;;;;;;;7.87;5.10;;;;;;;;;;5032262;28;20192;-76
2022/10/21 02:52:00;;;;;;;7.73;5.73;;;;;;;;;;5033334;28;20198;-76
2022/10/21 02:54:25;;;;;;;7.87;4.90;;;;;;;;;;5048770;28;20178;-76
2022/10/21 02:56:50;;;;;;;11.27;5.17;;;;;;;;;;5045720;28;20180;-76
2022/10/21 02:59:15;;;;;;;8.53;4.97;;;;;;;;;;5034849;28;20282;-76
2022/10/21 03:01:41;;;;;;;10.47;5.60;;;;;;;;;;5026387;28;20185;-76
2022/10/21 03:04:06;;;;;;;7.70;5.63;;;;;;;;;;5049529;28;20174;-76
2022/10/21 03:06:31;;;;;;;9.87;5.40;;;;;;;;;;5030891;28;20185;-76
2022/10/21 03:08:56;;;;;;;8.57;5.73;;;;;;;;;;5050735;28;21033;-76
2022/10/21 03:11:21;;;;;;;11.40;6.27;;;;;;;;;;5033818;28;20178;-76
2022/10/21 03:13:47;;;;;;;11.77;6.27;;;;;;;;;;5032252;28;20221;-76
2022/10/21 03:16:12;;;;;;;11.10;6.33;;;;;;;;;;5031816;28;20183;-76
2022/10/21 03:18:37;;;;;;;8.80;6.03;;;;;;;;;;5033481;28;20206;-76
2022/10/21 03:21:02;;;;;;;9.57;6.30;;;;;;;;;;5048708;28;20177;-76
2022/10/21 03:23:28;;;;;;;11.77;5.93;;;;;;;;;;5034591;28;20178;-76
2022/10/21 03:25:53;;;;;;;11.17;6.60;;;;;;;;;;5032616;28;20178;-76
2022/10/21 03:28:18;;;;;;;8.40;5.87;;;;;;;;;;5027147;28;20198;-76
2022/10/21 03:30:43;;;;;;;9.20;6.00;;;;;;;;;;5029430;28;20185;-77
2022/10/21 03:33:09;;;;;;;8.73;5.57;;;;;;;;;;5034736;28;20190;-76
2022/10/21 03:35:34;;;;;;;8.77;5.67;;;;;;;;;;5033290;28;20272;-76
2022/10/21 03:37:59;;;;;;;13.00;5.90;;;;;;;;;;5028813;28;20214;-76
2022/10/21 03:40:28;;;;;;;12.67;6.53;;;;;;;;;;5032801;28;20181;-76
2022/10/21 03:42:54;;;;;;;11.87;5.10;;;;;;;;;;5044451;28;20180;-77
2022/10/21 03:45:19;;;;;;;8.43;5.43;;;;;;;;;;5032716;28;20502;-77
2022/10/21 03:47:45;;;;;;;10.67;5.87;;;;;;;;;;5028434;28;20238;-76
2022/10/21 03:50:10;;;;;;;11.33;7.50;;;;;;;;;;5024142;28;20175;-76
2022/10/21 03:52:36;;;;;;;8.60;6.93;;;;;;;;;;5030241;28;20178;-76
2022/10/21 03:55:01;;;;;;;10.50;6.53;;;;;;;;;;5031384;28;20170;-76
2022/10/21 03:57:26;;;;;;;8.97;6.73;;;;;;;;;;5031237;28;20174;-76
2022/10/21 03:59:51;;;;;;;12.03;6.30;;;;;;;;;;5027366;28;20290;-76
2022/10/21 04:02:17;;;;;;;9.53;6.30;;;;;;;;;;5027494;28;20192;-77
2022/10/21 04:19:56;;;;;;;8.83;5.53;;;;;;;;;;5047899;28;20243;-76
2022/10/21 04:22:22;;;;;;;9.80;5.50;;;;;;;;;;5029543;28;20183;-76
2022/10/21 04:24:47;;;;;;;8.17;5.03;;;;;;;;;;5028050;28;20194;-77
2022/10/21 04:27:15;;;;;;;10.83;4.70;;;;;;;;;;5031690;28;20216;-76
2022/10/21 04:29:40;;;;;;;13.40;5.47;;;;;;;;;;5028460;28;20286;-76
2022/10/21 04:32:06;;;;;;;10.17;5.33;;;;;;;;;;5049728;28;20276;-76
2022/10/21 04:34:31;;;;;;;9.57;5.00;;;;;;;;;;5026092;28;20192;-77
2022/10/21 04:36:56;;;;;;;11.37;5.50;;;;;;;;;;5026123;28;20189;-76
2022/10/21 04:39:21;;;;;;;9.00;5.77;;;;;;;;;;5037698;28;20722;-76
2022/10/21 04:41:48;;;;;;;16.27;7.43;;;;;;;;;;5027222;28;20261;-76
2022/10/21 04:44:14;;;;;;;14.70;5.67;;;;;;;;;;5024806;28;20182;-76
2022/10/21 04:46:39;;;;;;;10.10;5.43;;;;;;;;;;5028565;28;20175;-76
2022/10/21 04:49:04;;;;;;;11.83;4.40;;;;;;;;;;5028692;28;20327;-76
2022/10/21 04:51:29;;;;;;;11.87;5.80;;;;;;;;;;5048206;28;20202;-76
2022/10/21 04:53:54;;;;;;;10.80;5.10;;;;;;;;;;5031055;28;20231;-76
2022/10/21 04:56:20;;;;;;;9.00;4.60;;;;;;;;;;5032264;28;20176;-77
2022/10/21 04:58:45;;;;;;;8.73;5.43;;;;;;;;;;5046701;28;20216;-76
2022/10/21 05:01:10;;;;;;;8.47;5.17;;;;;;;;;;5029738;28;20174;-76
2022/10/21 05:03:35;;;;;;;9.30;5.73;;;;;;;;;;5032010;28;20185;-83
2022/10/21 05:06:00;;;;;;;12.50;5.70;;;;;;;;;;5032762;28;20175;-83
2022/10/21 05:08:26;;;;;;;13.03;5.63;;;;;;;;;;5036808;28;20178;-83
2022/10/21 05:11:01;;;;;;;10.50;5.90;;;;;;;;;;5036368;28;20178;-82
2022/10/21 05:13:27;;;;;;;13.00;6.17;;;;;;;;;;5046834;28;20200;-82
2022/10/21 05:15:52;;;;;;;11.70;5.20;;;;;;;;;;5033948;28;20190;-82
2022/10/21 05:18:17;;;;;;;9.90;5.27;;;;;;;;;;5035394;28;20230;-81
2022/10/21 05:20:48;;;;;;;14.43;4.93;;;;;;;;;;5033074;28;20209;-81
2022/10/21 05:23:13;;;;;;;10.83;5.87;;;;;;;;;;5034205;28;20176;-81
2022/10/21 05:25:38;;;;;;;12.83;5.47;;;;;;;;;;5032402;28;20177;-80
2022/10/21 05:28:03;;;;;;;12.00;5.97;;;;;;;;;;5031942;28;20209;-81
2022/10/21 05:30:28;;;;;;;9.40;5.47;;;;;;;;;;5033152;28;20228;-80
2022/10/21 05:32:54;;;;;;;8.87;5.80;;;;;;;;;;5035328;28;20193;-80
2022/10/21 05:35:19;;;;;;;10.43;5.70;;;;;;;;;;5027125;28;20191;-80
2022/10/21 05:37:44;;;;;;;12.27;5.47;;;;;;;;;;5032100;28;20186;-80
2022/10/21 05:40:10;;;;;;;10.60;5.50;;;;;;;;;;5032549;28;20174;-80
2022/10/21 05:42:35;;;;;;;17.03;6.03;;;;;;;;;;5031880;28;20186;-80
2022/10/21 05:45:00;;;;;;;10.63;5.50;;;;;;;;;;5032813;28;20175;-80
2022/10/21 05:47:25;;;;;;;9.13;4.50;;;;;;;;;;5027019;28;20194;-80
2022/10/21 05:49:51;;;;;;;12.70;5.70;;;;;;;;;;5048091;28;20202;-80
2022/10/21 05:52:17;;;;;;;9.67;4.93;;;;;;;;;;5030966;28;20177;-81
2022/10/21 05:54:42;;;;;;;10.17;5.60;;;;;;;;;;5029251;28;20195;-81
2022/10/21 05:57:07;;;;;;;11.30;5.20;;;;;;;;;;5030139;28;20294;-80
2022/10/21 05:59:32;;;;;;;12.87;5.07;;;;;;;;;;5031673;28;20212;-81
2022/10/21 06:01:57;;;;;;;13.67;5.40;;;;;;;;;;5036758;28;20182;-80
2022/10/21 06:04:23;;;;;;;12.37;5.37;;;;;;;;;;5030965;28;20190;-80
2022/10/21 06:06:48;;;;;;;11.80;4.97;;;;;;;;;;5029548;28;20178;-80
2022/10/21 06:09:13;;;;;;;9.93;5.80;;;;;;;;;;5053009;28;20179;-80
2022/10/21 06:11:38;;;;;;;11.13;4.83;;;;;;;;;;5031327;28;20191;-80
2022/10/21 06:14:03;;;;;;;9.83;4.97;;;;;;;;;;5032366;28;20191;-80
2022/10/21 06:16:29;;;;;;;8.70;5.10;;;;;;;;;;5031654;28;20258;-80
2022/10/21 06:18:54;;;;;;;7.37;4.60;;;;;;;;;;5033234;28;20200;-80
2022/10/21 06:21:19;;;;;;;13.83;5.63;;;;;;;;;;5028912;28;20187;-80
2022/10/21 06:23:45;;;;;;;7.63;5.13;;;;;;;;;;5026774;28;20183;-80
2022/10/21 06:26:12;;;;;;;10.13;4.07;;;;;;;;;;5034979;28;20182;-80
2022/10/21 06:28:38;;;;;;;7.60;4.07;;;;;;;;;;5029097;28;20326;-81
2022/10/21 06:31:04;;;;;;;9.13;3.87;;;;;;;;;;5030585;28;20269;-81
2022/10/21 06:33:29;;;;;;;13.50;5.23;;;;;;;;;;5030421;28;20244;-81
2022/10/21 06:35:54;;;;;;;12.33;5.00;;;;;;;;;;5035536;28;20205;-80
2022/10/21 06:38:20;;;;;;;9.17;4.10;;;;;;;;;;5025072;28;20306;-81
2022/10/21 06:40:47;;;;;;;9.53;4.67;;;;;;;;;;5032036;28;20180;-80
2022/10/21 06:43:12;;;;;;;6.90;3.90;;;;;;;;;;5027385;28;20180;-80
2022/10/21 06:45:38;;;;;;;6.57;4.37;;;;;;;;;;5022853;28;20244;-80
2022/10/21 06:48:03;;;;;;;10.43;4.07;;;;;;;;;;5026590;28;20190;-81
2022/10/21 06:50:28;;;;;;;6.97;3.90;;;;;;;;;;5030238;28;20282;-81
2022/10/21 06:52:54;;;;;;;10.23;3.27;;;;;;;;;;5034228;28;20178;-80
2022/10/21 06:55:20;;;;;;;7.77;3.60;;;;;;;;;;5040597;28;20182;-81
2022/10/21 06:57:45;;;;;;;7.17;3.60;;;;;;;;;;5030967;28;20270;-80
2022/10/21 07:00:11;;;;;;;8.37;4.10;;;;;;;;;;5027328;28;20176;-81
2022/10/21 07:02:36;;;;;;;5.53;3.33;;;;;;;;;;5027299;28;20261;-81
2022/10/21 07:05:01;;;;;;;23.03;12.70;;;;;;;;;;5026881;28;20242;-81
2022/10/21 07:07:27;;;;;;;12.60;9.50;;;;;;;;;;5024418;28;20175;-81
2022/10/21 07:09:56;;;;;;;11.93;9.37;;;;;;;;;;5034211;28;20246;-81
2022/10/21 07:12:21;;;;;;;10.43;4.83;;;;;;;;;;5026837;28;20176;-80
2022/10/21 07:14:46;;;;;;;9.80;5.17;;;;;;;;;;5030106;28;20206;-80
2022/10/21 07:17:12;;;;;;;11.53;5.17;;;;;;;;;;5024325;28;20179;-81
2022/10/21 07:19:37;;;;;;;6.80;4.20;;;;;;;;;;5023163;28;20246;-81
2022/10/21 07:22:02;;;;;;;11.97;4.60;;;;;;;;;;5029621;28;20240;-81
2022/10/21 07:24:27;;;;;;;10.73;4.47;;;;;;;;;;5030924;28;20211;-81
2022/10/21 07:26:52;;;;;;;9.97;4.37;;;;;;;;;;5033919;28;20175;-81
2022/10/21 07:29:19;;;;;;;10.00;4.73;;;;;;;;;;5038719;28;20251;-81
2022/10/21 07:31:44;;;;;;;11.60;5.90;;;;;;;;;;5047857;28;20182;-81
2022/10/21 07:34:10;;;;;;;9.73;4.53;;;;;;;;;;5034650;28;20178;-80
2022/10/21 07:36:37;;;;;;;8.80;4.67;;;;;;;;;;5031992;28;20178;-81
2022/10/21 07:39:05;;;;;;;8.03;4.07;;;;;;;;;;5032296;28;20232;-81
2022/10/21 07:41:33;;;;;;;9.77;3.90;;;;;;;;;;5026210;28;20182;-80
2022/10/21 07:43:58;;;;;;;8.23;4.97;;;;;;;;;;5029251;28;20195;-81
2022/10/21 07:46:24;;;;;;;7.23;4.30;;;;;;;;;;5034527;28;20182;-81
2022/10/21 07:48:49;;;;;;;7.70;4.47;;;;;;;;;;5051408;28;20186;-81
2022/10/21 07:51:16;;;;;;;6.50;3.77;;;;;;;;;;5028563;28;20185;-81
2022/10/21 07:53:41;;;;;;;6.87;3.50;;;;;;;;;;5028828;28;20181;-81
2022/10/21 07:56:08;;;;;;;9.97;3.47;;;;;;;;;;5032455;28;20188;-81
2022/10/21 07:58:33;;;;;;;5.40;3.43;;;;;;;;;;5032832;28;20289;-81
2022/10/21 08:01:00;;;;;;;5.50;3.50;;;;;;;;;;5030079;28;20277;-81
2022/10/21 08:03:25;;;;;;;7.27;3.60;;;;;;;;;;5050717;28;20191;-81
2022/10/21 08:05:51;;;;;;;5.47;3.10;;;;;;;;;;5025819;28;20174;-81
2022/10/21 08:08:16;;;;;;;5.53;3.50;;;;;;;;;;5033077;28;20207;-81
2022/10/21 08:10:42;;;;;;;5.20;2.80;;;;;;;;;;5033047;28;20197;-81
2022/10/21 08:13:07;;;;;;;4.27;2.40;;;;;;;;;;5032673;28;20231;-81
2022/10/21 08:15:33;;;;;;;8.60;2.57;;;;;;;;;;5030775;28;20270;-81
2022/10/21 08:17:58;;;;;;;3.33;2.47;;;;;;;;;;5033028;28;20301;-81
2022/10/21 08:20:23;;;;;;;4.07;2.37;;;;;;;;;;5032474;28;20244;-81
2022/10/21 08:22:48;;;;;;;4.53;2.37;;;;;;;;;;5032093;28;20221;-81
2022/10/21 08:25:15;;;;;;;3.30;2.20;;;;;;;;;;5031355;28;20174;-81
2022/10/21 08:27:41;;;;;;;6.33;2.80;;;;;;;;;;5050343;28;20168;-81
2022/10/21 08:30:06;;;;;;;4.80;4.03;;;;;;;;;;5029482;28;20221;-81
2022/10/21 08:32:31;;;;;;;7.17;4.67;;;;;;;;;;5026924;28;20179;-81
2022/10/21 08:34:56;;;;;;;5.40;3.40;;;;;;;;;;5032410;28;20189;-81
2022/10/21 08:37:21;;;;;;;3.10;2.60;;;;;;;;;;5029742;28;20183;-82
2022/10/21 08:39:47;;;;;;;6.43;3.13;;;;;;;;;;5028705;28;20210;-81
2022/10/21 08:42:16;;;;;;;4.90;2.67;;;;;;;;;;5027631;28;20182;-81
2022/10/21 08:44:47;;;;;;;5.80;2.50;;;;;;;;;;5025035;28;20242;-81
2022/10/21 08:47:27;;;;;;;6.87;2.80;;;;;;;;;;5028656;28;20178;-81
2022/10/21 08:49:55;;;;;;;8.27;3.90;;;;;;;;;;5024694;28;20261;-81
2022/10/21 08:52:22;;;;;;;4.47;2.90;;;;;;;;;;5029716;28;20178;-81
2022/10/21 08:54:52;;;;;;;9.47;3.40;;;;;;;;;;5024033;28;20203;-81
2022/10/21 08:57:18;;;;;;;5.60;2.83;;;;;;;;;;5027574;28;20179;-81
2022/10/21 08:59:44;;;;;;;4.50;2.90;;;;;;;;;;5029008;28;20215;-81
2022/10/21 09:02:20;;;;;;;6.83;2.80;;;;;;;;;;5029467;28;20179;-81
2022/10/21 09:04:45;;;;;;;4.77;2.77;;;;;;;;;;5027360;28;20487;-81
2022/10/21 09:07:18;;;;;;;5.43;3.03;;;;;;;;;;5029844;28;20170;-81
2022/10/21 09:09:59;;;;;;;4.63;2.40;;;;;;;;;;5025723;28;20307;-81
2022/10/21 09:12:34;;;;;;;4.27;2.67;;;;;;;;;;5026940;28;20182;-81
2022/10/21 09:15:02;;;;;;;4.83;2.43;;;;;;;;;;5028763;28;20193;-82
2022/10/21 09:17:40;;;;;;;3.63;1.83;;;;;;;;;;5027776;28;20210;-82
2022/10/21 09:20:29;;;;;;;3.27;1.70;;;;;;;;;;5027038;28;20333;-81
2022/10/21 09:23:13;;;;;;;2.77;1.87;;;;;;;;;;5026448;28;20191;-81
2022/10/21 09:25:57;;;;;;;3.57;1.73;;;;;;;;;;5025961;28;20188;-81
2022/10/21 09:28:23;;;;;;;6.03;3.93;;;;;;;;;;5028955;28;20239;-81
2022/10/21 09:30:49;;;;;;;10.03;6.00;;;;;;;;;;5031670;28;20190;-81
2022/10/21 09:33:14;;;;;;;4.90;2.60;;;;;;;;;;5030750;28;20268;-81
2022/10/21 09:35:45;;;;;;;5.17;3.67;;;;;;;;;;5031391;28;20283;-81
2022/10/21 09:38:10;;;;;;;5.07;3.40;;;;;;;;;;5046445;28;20195;-81
2022/10/21 09:40:36;;;;;;;5.10;2.83;;;;;;;;;;5029026;28;20214;-81
2022/10/21 09:43:01;;;;;;;4.40;2.70;;;;;;;;;;5033836;28;20477;-81
2022/10/21 09:45:34;;;;;;;5.70;2.30;;;;;;;;;;5031465;28;20186;-81
2022/10/21 09:48:21;;;;;;;1.53;1.40;;;;;;;;;;5027743;28;20183;-81
2022/10/21 09:51:05;;;;;;;2.33;1.20;;;;;;;;;;5028146;28;20188;-81
2022/10/21 09:53:39;;;;;;;2.33;1.43;;;;;;;;;;5034880;28;20170;-81
2022/10/21 09:56:19;;;;;;;2.17;1.10;;;;;;;;;;5030520;28;20174;-81
2022/10/21 09:58:49;;;;;;;1.00;1.00;;;;;;;;;;5034835;28;20198;-81
2022/10/21 10:01:21;;;;;;;3.23;1.57;;;;;;;;;;5031839;28;20186;-82
2022/10/21 10:03:50;;;;;;;2.30;1.27;;;;;;;;;;5034270;28;20394;-82
2022/10/21 10:06:29;;;;;;;2.03;1.20;;;;;;;;;;5050609;28;20252;-81
2022/10/21 10:09:04;;;;;;;2.83;1.10;;;;;;;;;;5032068;28;20213;-81
2022/10/21 10:11:29;;;;;;;4.63;1.33;;;;;;;;;;5033682;28;20219;-81
2022/10/21 10:13:54;;;;;;;1.20;0.90;;;;;;;;;;5050405;28;20206;-81
2022/10/21 10:16:21;;;;;;;1.10;1.00;;;;;;;;;;5053230;28;20187;-81
2022/10/21 10:18:48;;;;;;;2.23;0.90;;;;;;;;;;5032684;28;20337;-81
2022/10/21 10:21:15;;;;;;;2.03;0.80;;;;;;;;;;5035022;28;20202;-81
2022/10/21 10:23:41;;;;;;;1.27;0.93;;;;;;;;;;5029804;28;20228;-81
2022/10/21 10:26:06;;;;;;;2.47;1.30;;;;;;;;;;5051775;28;20182;-81
2022/10/21 10:28:31;;;;;;;1.20;0.83;;;;;;;;;;5031723;28;20232;-81
2022/10/21 10:30:57;;;;;;;0.83;0.80;;;;;;;;;;5034045;28;20180;-81
2022/10/21 10:33:30;;;;;;;0.60;0.60;;;;;;;;;;5045278;28;20204;-81
2022/10/21 10:35:57;;;;;;;1.53;1.03;;;;;;;;;;5026547;28;20180;-81
2022/10/21 10:38:25;;;;;;;2.10;0.97;;;;;;;;;;5028592;28;20210;-81
2022/10/21 10:40:50;;;;;;;2.90;1.30;;;;;;;;;;5029996;28;20203;-82
2022/10/21 10:43:16;;;;;;;2.10;0.80;;;;;;;;;;5029491;28;20211;-82
2022/10/21 10:45:52;;;;;;;1.90;0.70;;;;;;;;;;5029515;28;20222;-82
2022/10/21 10:48:36;;;;;;;0.80;0.80;;;;;;;;;;5027420;28;20184;-82
2022/10/21 10:51:05;;;;;;;0.80;0.80;;;;;;;;;;5031090;28;20183;-82
2022/10/21 10:53:35;;;;;;;1.63;0.90;;;;;;;;;;5026542;28;20182;-82
2022/10/21 10:56:14;;;;;;;3.53;1.63;;;;;;;;;;5027446;28;20249;-82
2022/10/21 10:58:42;;;;;;;1.10;1.00;;;;;;;;;;5027593;28;20201;-82
2022/10/21 11:01:11;;;;;;;1.10;1.00;;;;;;;;;;5025313;28;20184;-82
2022/10/21 11:03:45;;;;;;;1.07;0.97;;;;;;;;;;5025593;28;20180;-82
2022/10/21 11:06:25;;;;;;;2.10;1.03;;;;;;;;;;5031696;28;20179;-82
2022/10/21 11:08:53;;;;;;;2.13;1.13;;;;;;;;;;5046918;28;20184;-83
2022/10/21 11:11:18;;;;;;;2.27;1.13;;;;;;;;;;5044273;28;20189;-82
2022/10/21 11:13:43;;;;;;;4.27;1.40;;;;;;;;;;5029355;28;20185;-83
2022/10/21 11:16:24;;;;;;;1.10;1.00;;;;;;;;;;5028662;28;20219;-83
2022/10/21 11:18:54;;;;;;;1.20;0.90;;;;;;;;;;5026855;28;20211;-83
2022/10/21 11:21:43;;;;;;;0.97;0.97;;;;;;;;;;5022188;28;20192;-82
2022/10/21 11:24:08;;;;;;;1.30;1.20;;;;;;;;;;5032135;28;20216;-83
2022/10/21 11:26:33;;;;;;;1.57;1.43;;;;;;;;;;5027294;28;20178;-83
2022/10/21 11:29:19;;;;;;;2.07;1.30;;;;;;;;;;5026827;28;20245;-83
2022/10/21 11:31:44;;;;;;;1.33;1.03;;;;;;;;;;5030375;28;20189;-83
2022/10/21 11:34:30;;;;;;;2.50;1.20;;;;;;;;;;5025667;28;20178;-83
2022/10/21 11:36:55;;;;;;;1.20;0.80;;;;;;;;;;5030333;28;20295;-83
2022/10/21 11:39:24;;;;;;;0.93;0.90;;;;;;;;;;5030886;28;20278;-83
2022/10/21 11:41:49;;;;;;;2.13;0.97;;;;;;;;;;5034171;28;20183;-83
2022/10/21 11:44:19;;;;;;;3.80;1.10;;;;;;;;;;5029301;28;20182;-84
2022/10/21 11:47:02;;;;;;;1.07;0.97;;;;;;;;;;5032538;28;20185;-83
2022/10/21 11:49:40;;;;;;;2.33;1.13;;;;;;;;;;5043394;28;20185;-84
2022/10/21 11:52:19;;;;;;;2.73;1.33;;;;;;;;;;5026022;28;20441;-83
2022/10/21 11:54:47;;;;;;;3.07;1.30;;;;;;;;;;5028498;28;20204;-84
2022/10/21 11:57:20;;;;;;;3.07;0.90;;;;;;;;;;5031900;28;20232;-84
2022/10/21 11:59:46;;;;;;;1.63;1.00;;;;;;;;;;5009032;28;20308;-84
2022/10/21 12:02:26;;;;;;;1.30;1.17;;;;;;;;;;5028234;28;20218;-83
2022/10/21 12:05:04;;;;;;;1.30;1.20;;;;;;;;;;5029552;28;20176;-83
2022/10/21 12:07:29;;;;;;;1.43;1.33;;;;;;;;;;5030567;28;20177;-83
2022/10/21 12:10:00;;;;;;;2.73;1.20;;;;;;;;;;5027826;28;20177;-84
2022/10/21 12:12:29;;;;;;;1.93;1.00;;;;;;;;;;5029355;28;20189;-84
2022/10/21 12:14:56;;;;;;;1.67;1.30;;;;;;;;;;5034492;28;20922;-84
2022/10/21 12:17:22;;;;;;;1.57;1.10;;;;;;;;;;5030593;28;20212;-84
2022/10/21 12:19:58;;;;;;;2.80;1.50;;;;;;;;;;5027189;28;20236;-84
2022/10/21 12:22:24;;;;;;;2.47;1.17;;;;;;;;;;5030351;28;20170;-84
2022/10/21 12:24:54;;;;;;;2.93;1.23;;;;;;;;;;5025246;28;20213;-84
2022/10/21 12:27:22;;;;;;;2.60;1.30;;;;;;;;;;5029650;28;20172;-84
2022/10/21 12:29:51;;;;;;;3.13;1.37;;;;;;;;;;5027475;28;20285;-84
2022/10/21 12:32:35;;;;;;;2.07;1.43;;;;;;;;;;5029738;28;20190;-84
2022/10/21 12:35:01;;;;;;;2.83;1.80;;;;;;;;;;5029060;28;20227;-84
2022/10/21 12:37:43;;;;;;;2.10;1.50;;;;;;;;;;5029879;28;20231;-84
2022/10/21 12:40:29;;;;;;;2.83;1.70;;;;;;;;;;5028174;28;20202;-84
2022/10/21 12:42:59;;;;;;;2.97;1.70;;;;;;;;;;5021199;28;20198;-84
2022/10/21 12:45:25;;;;;;;2.37;1.43;;;;;;;;;;5029536;28;20181;-84
2022/10/21 12:47:51;;;;;;;1.63;1.20;;;;;;;;;;5031085;28;20182;-84
2022/10/21 12:50:21;;;;;;;2.73;1.60;;;;;;;;;;5030791;28;20172;-84
2022/10/21 12:53:01;;;;;;;1.80;1.23;;;;;;;;;;5029763;28;20192;-84
2022/10/21 12:55:27;;;;;;;1.30;1.20;;;;;;;;;;5030332;28;20215;-84
2022/10/21 12:57:58;;;;;;;2.03;1.50;;;;;;;;;;5027775;28;20220;-84
2022/10/21 13:00:27;;;;;;;2.03;1.40;;;;;;;;;;5028986;28;20277;-84
2022/10/21 13:03:06;;;;;;;1.83;1.60;;;;;;;;;;5030562;28;20185;-84
2022/10/21 13:05:37;;;;;;;3.63;1.27;;;;;;;;;;5022411;28;20232;-84
2022/10/21 13:08:13;;;;;;;2.30;1.60;;;;;;;;;;5029452;28;20180;-84
2022/10/21 13:10:38;;;;;;;1.90;1.53;;;;;;;;;;5025601;28;20173;-84
2022/10/21 13:13:27;;;;;;;2.70;1.50;;;;;;;;;;5025962;28;20298;-84
2022/10/21 13:15:52;;;;;;;4.37;2.33;;;;;;;;;;5041398;28;20182;-84
2022/10/21 13:18:36;;;;;;;2.80;1.13;;;;;;;;;;5025519;28;20196;-84
2022/10/21 13:21:01;;;;;;;2.43;1.80;;;;;;;;;;5028267;28;20181;-84
2022/10/21 13:23:28;;;;;;;3.83;1.40;;;;;;;;;;5026496;28;20185;-84
2022/10/21 13:26:04;;;;;;;1.63;1.40;;;;;;;;;;5027451;28;20270;-84
2022/10/21 13:28:29;;;;;;;1.77;1.60;;;;;;;;;;5032964;28;20269;-84
2022/10/21 13:30:54;;;;;;;3.00;1.73;;;;;;;;;;5036138;28;20288;-84
2022/10/21 13:33:21;;;;;;;2.00;1.83;;;;;;;;;;5034611;28;20280;-84
2022/10/21 13:35:48;;;;;;;5.43;1.37;;;;;;;;;;5030849;28;20180;-84
2022/10/21 13:38:22;;;;;;;2.17;1.97;;;;;;;;;;5038494;28;20323;-83
2022/10/21 13:40:48;;;;;;;2.47;1.80;;;;;;;;;;5034322;28;20188;-84
2022/10/21 13:43:16;;;;;;;1.20;1.10;;;;;;;;;;5028782;28;20195;-84
2022/10/21 13:45:47;;;;;;;2.13;1.40;;;;;;;;;;5032076;28;20177;-84
2022/10/21 13:48:12;;;;;;;3.87;2.10;;;;;;;;;;5046577;28;20196;-85
2022/10/21 13:50:39;;;;;;;2.80;2.43;;;;;;;;;;5035765;28;20179;-85
2022/10/21 13:53:22;;;;;;;5.67;5.20;;;;;;;;;;5035472;28;20265;-84
2022/10/21 13:56:01;;;;;;;3.33;2.50;;;;;;;;;;5033546;28;20188;-84
2022/10/21 13:58:27;;;;;;;6.43;6.03;;;;;;;;;;5051486;28;20215;-84
2022/10/21 14:00:53;;;;;;;3.67;3.37;;;;;;;;;;5034094;28;20179;-84
2022/10/21 14:03:19;;;;;;;5.87;5.27;;;;;;;;;;5031919;28;20176;-84
2022/10/21 14:05:50;;;;;;;1.80;1.70;;;;;;;;;;5032446;28;20177;-84
2022/10/21 14:08:32;;;;;;;2.00;1.07;;;;;;;;;;5046684;28;20236;-84
2022/10/21 14:10:59;;;;;;;2.53;1.40;;;;;;;;;;5028429;28;20176;-84
2022/10/21 14:13:27;;;;;;;1.57;1.43;;;;;;;;;;5038697;28;20177;-84
2022/10/21 14:15:53;;;;;;;0.87;0.83;;;;;;;;;;5032569;28;20184;-84
2022/10/21 14:18:27;;;;;;;4.37;1.93;;;;;;;;;;5028814;28;20203;-84
2022/10/21 14:20:53;;;;;;;1.73;1.10;;;;;;;;;;5034061;28;20389;-84
2022/10/21 14:23:19;;;;;;;3.47;2.03;;;;;;;;;;5030121;28;20176;-84
2022/10/21 14:25:48;;;;;;;1.30;1.20;;;;;;;;;;5032927;28;20181;-84
2022/10/21 14:28:13;;;;;;;3.90;3.13;;;;;;;;;;5031909;28;20575;-84
2022/10/21 14:30:39;;;;;;;2.20;1.40;;;;;;;;;;5037840;28;20185;-84
2022/10/21 14:33:13;;;;;;;3.17;2.17;;;;;;;;;;5030500;28;20175;-84
2022/10/21 14:35:39;;;;;;;2.47;1.70;;;;;;;;;;5032783;28;20181;-84
2022/10/21 14:38:22;;;;;;;5.13;2.03;;;;;;;;;;5033684;28;20188;-83
2022/10/21 14:40:55;;;;;;;1.20;0.90;;;;;;;;;;5029356;28;20180;-84
2022/10/21 14:43:23;;;;;;;1.20;1.10;;;;;;;;;;5030067;28;20187;-84
2022/10/21 14:45:50;;;;;;;1.33;1.20;;;;;;;;;;5031048;28;20183;-84
2022/10/21 14:48:15;;;;;;;1.70;1.60;;;;;;;;;;5036262;28;20212;-84
2022/10/21 14:50:40;;;;;;;3.00;1.50;;;;;;;;;;5033531;28;20215;-84
2022/10/21 14:53:16;;;;;;;2.83;1.77;;;;;;;;;;5032299;28;20173;-83
2022/10/21 14:55:43;;;;;;;1.43;1.33;;;;;;;;;;5030329;28;20186;-84
2022/10/21 14:58:09;;;;;;;2.67;2.10;;;;;;;;;;5040064;28;20180;-84
2022/10/21 15:00:39;;;;;;;3.97;1.50;;;;;;;;;;5036670;28;20206;-84